CZ-0029 weather

Úvn/Central Military Hospital Střešovice -Pavilion Ch 2 Heliport
Prague, Prague (capital city), Czech Republic

Public forecast

Using degrees Celsius for public forecast. Weather courtesy of forecast.io.

Closest aviation weather report (METAR) to Úvn/Central Military Hospital Střešovice -Pavilion Ch 2 Heliport

Closest report is Václav Havel Airport Prague, 4.0 nm (7.5 km) W. Retrieved 2020/04/02 21:30 UTC (14 minutes ago):

LKPR 022130Z 22009KT CAVOK 03/M06 Q1008 NOSIG

Closest aviation forecast (TAF) to Úvn/Central Military Hospital Střešovice -Pavilion Ch 2 Heliport

Closest forecast is Václav Havel Airport Prague, 4.0 nm (7.5 km) W. Retrieved 2020/04/02 18:15 UTC (3 hours ago):

TAF LKPR 021700Z 0218/0400 23008KT CAVOK BECMG 0306/0308 9999 BKN027 TEMPO 0310/0318 27012G24KT 7000 SHRA SCT013TCU BKN014